Time;durP1;ratioP1;P1;durP2;ratioP2;P2;SDS_P1;SDS_P2;PMS_P1;PMS_P2;Temp;Humidity;BMP_temperature;BMP_pressure;BME280_temperature;BME280_humidity;BME280_pressure;Samples;Min_cycle;Max_cycle;Signal;HPM_P1;HPM_P2
2022/06/27 00:01:24;;;;;;;3.00;2.80;;;;;;;;;;5087325;28;20225;-75
2022/06/27 00:03:51;;;;;;;3.15;2.95;;;;;;;;;;5083930;28;20679;-75
2022/06/27 00:06:19;;;;;;;4.22;3.50;;;;;;;;;;5088877;28;20672;-76
2022/06/27 00:08:50;;;;;;;4.13;3.70;;;;;;;;;;5082256;28;20214;-77
2022/06/27 00:11:18;;;;;;;5.55;4.60;;;;;;;;;;5086829;28;20311;-76
2022/06/27 00:13:46;;;;;;;6.57;4.53;;;;;;;;;;5083594;28;20219;-76
2022/06/27 00:16:13;;;;;;;5.03;4.60;;;;;;;;;;5064130;28;20297;-76
2022/06/27 00:19:00;;;;;;;5.93;5.32;;;;;;;;;;5083629;28;20193;-77
2022/06/27 00:21:27;;;;;;;5.30;4.90;;;;;;;;;;5093589;28;20264;-77
2022/06/27 00:23:55;;;;;;;7.28;6.72;;;;;;;;;;5084505;28;20227;-78
2022/06/27 00:26:22;;;;;;;7.03;6.53;;;;;;;;;;5088493;28;20232;-77
2022/06/27 00:28:50;;;;;;;8.38;7.00;;;;;;;;;;5083954;28;20208;-76
2022/06/27 00:31:17;;;;;;;6.60;6.10;;;;;;;;;;5091615;28;20665;-75
2022/06/27 00:33:44;;;;;;;8.15;7.35;;;;;;;;;;5073904;28;20201;-76
2022/06/27 00:36:11;;;;;;;8.57;7.88;;;;;;;;;;5084065;28;20291;-77
2022/06/27 00:38:38;;;;;;;8.18;7.50;;;;;;;;;;5083881;28;20806;-76
2022/06/27 00:41:06;;;;;;;11.55;10.15;;;;;;;;;;5087720;28;20308;-78
2022/06/27 00:43:33;;;;;;;8.60;7.75;;;;;;;;;;5086378;28;20296;-76
2022/06/27 00:46:00;;;;;;;8.75;8.05;;;;;;;;;;5080657;28;20205;-76
2022/06/27 00:48:28;;;;;;;8.20;7.32;;;;;;;;;;5085233;28;20204;-76
2022/06/27 00:50:56;;;;;;;8.82;8.13;;;;;;;;;;5085977;28;20268;-74
2022/06/27 00:53:24;;;;;;;7.80;7.20;;;;;;;;;;5086962;28;20219;-78
2022/06/27 00:55:51;;;;;;;8.20;7.60;;;;;;;;;;5073870;28;20295;-77
2022/06/27 00:58:18;;;;;;;7.97;7.22;;;;;;;;;;5071166;28;20196;-76
2022/06/27 01:00:46;;;;;;;7.00;6.40;;;;;;;;;;5088111;28;20358;-75
2022/06/27 01:03:13;;;;;;;6.55;6.03;;;;;;;;;;5089901;28;20204;-76
2022/06/27 01:05:51;;;;;;;6.45;5.95;;;;;;;;;;5084346;28;20235;-75
2022/06/27 01:08:20;;;;;;;5.50;5.10;;;;;;;;;;5084270;28;20196;-76
2022/06/27 01:10:48;;;;;;;5.03;4.63;;;;;;;;;;5083499;28;20236;-76
2022/06/27 01:13:15;;;;;;;3.97;3.78;;;;;;;;;;5088268;28;20205;-76
2022/06/27 01:15:43;;;;;;;3.38;3.13;;;;;;;;;;5082110;28;20250;-75
2022/06/27 01:18:12;;;;;;;2.92;2.72;;;;;;;;;;5092463;28;20199;-77
2022/06/27 01:20:43;;;;;;;2.42;2.22;;;;;;;;;;5094508;28;20224;-77
2022/06/27 01:23:11;;;;;;;2.47;2.30;;;;;;;;;;5088160;28;20617;-77
2022/06/27 01:25:39;;;;;;;2.80;2.30;;;;;;;;;;5089525;28;20219;-76
2022/06/27 01:28:07;;;;;;;2.20;2.10;;;;;;;;;;5096255;28;20703;-74
2022/06/27 01:30:34;;;;;;;2.42;2.25;;;;;;;;;;5082023;28;20292;-76
2022/06/27 01:33:01;;;;;;;2.58;2.38;;;;;;;;;;5071718;28;20665;-75
2022/06/27 01:35:28;;;;;;;5.05;2.50;;;;;;;;;;5075304;28;20838;-75
2022/06/27 01:37:56;;;;;;;2.70;2.17;;;;;;;;;;5076620;28;20283;-77
2022/06/27 01:40:23;;;;;;;2.35;2.15;;;;;;;;;;5081762;28;20292;-77
2022/06/27 01:42:51;;;;;;;2.05;1.90;;;;;;;;;;5079072;28;20327;-77
2022/06/27 01:45:18;;;;;;;3.63;3.33;;;;;;;;;;5069253;28;20205;-77
2022/06/27 01:47:45;;;;;;;1.90;1.80;;;;;;;;;;5064885;28;20240;-75
2022/06/27 01:50:15;;;;;;;1.77;1.67;;;;;;;;;;5075084;28;20878;-75
2022/06/27 01:52:44;;;;;;;3.83;3.47;;;;;;;;;;5078868;28;20653;-75
2022/06/27 01:55:11;;;;;;;1.80;1.73;;;;;;;;;;5081865;28;20196;-76
2022/06/27 01:57:39;;;;;;;1.60;1.50;;;;;;;;;;5082353;28;20220;-78
2022/06/27 02:00:07;;;;;;;1.60;1.50;;;;;;;;;;5089123;28;20201;-74
2022/06/27 02:02:35;;;;;;;2.35;1.60;;;;;;;;;;5083217;28;20313;-75
2022/06/27 02:05:01;;;;;;;2.47;1.45;;;;;;;;;;5073583;28;20284;-74
2022/06/27 02:07:28;;;;;;;1.40;1.40;;;;;;;;;;5081332;28;20296;-76
2022/06/27 02:09:56;;;;;;;1.50;1.40;;;;;;;;;;5075593;28;20289;-76
2022/06/27 02:12:23;;;;;;;1.58;1.48;;;;;;;;;;5075987;28;20744;-76
2022/06/27 02:14:52;;;;;;;5.22;3.13;;;;;;;;;;5078057;28;20216;-77
2022/06/27 02:17:19;;;;;;;2.58;2.35;;;;;;;;;;5070858;28;20283;-76
2022/06/27 02:19:47;;;;;;;2.13;2.03;;;;;;;;;;5075867;28;20205;-76
2022/06/27 02:22:14;;;;;;;4.05;3.20;;;;;;;;;;5084828;28;20320;-75
2022/06/27 02:24:42;;;;;;;2.53;2.33;;;;;;;;;;5084176;28;21194;-78
2022/06/27 02:27:10;;;;;;;2.30;2.20;;;;;;;;;;5086501;28;23571;-76
2022/06/27 02:29:38;;;;;;;2.60;2.50;;;;;;;;;;5093280;28;20236;-77
2022/06/27 02:32:06;;;;;;;2.70;2.38;;;;;;;;;;5087158;28;20316;-77
2022/06/27 02:34:34;;;;;;;2.58;2.28;;;;;;;;;;5092851;28;20217;-76
2022/06/27 02:37:03;;;;;;;2.78;2.58;;;;;;;;;;5093820;28;20197;-77
2022/06/27 02:39:31;;;;;;;4.63;4.43;;;;;;;;;;5089976;28;20297;-77
2022/06/27 02:41:59;;;;;;;2.80;2.60;;;;;;;;;;5087368;28;20230;-77
2022/06/27 02:44:27;;;;;;;2.35;2.15;;;;;;;;;;5090103;27;20228;-76
2022/06/27 02:46:54;;;;;;;2.35;2.17;;;;;;;;;;5060946;28;20201;-74
2022/06/27 02:49:22;;;;;;;1.90;1.80;;;;;;;;;;5075635;28;20208;-76
2022/06/27 02:52:01;;;;;;;3.72;3.25;;;;;;;;;;5069206;28;20309;-76
2022/06/27 02:54:34;;;;;;;5.65;3.78;;;;;;;;;;5083248;28;20300;-75
2022/06/27 02:57:08;;;;;;;2.28;2.17;;;;;;;;;;5079686;28;20237;-76
2022/06/27 02:59:38;;;;;;;2.03;1.90;;;;;;;;;;5069759;28;20366;-75
2022/06/27 03:02:09;;;;;;;2.00;1.80;;;;;;;;;;5087947;28;20343;-77
2022/06/27 03:04:38;;;;;;;2.08;1.90;;;;;;;;;;5087014;28;20277;-76
2022/06/27 03:07:05;;;;;;;1.73;1.63;;;;;;;;;;5079650;28;20252;-76
2022/06/27 03:09:32;;;;;;;2.53;2.20;;;;;;;;;;5082558;28;20258;-77
2022/06/27 03:12:00;;;;;;;2.15;1.70;;;;;;;;;;5068538;28;20277;-76
2022/06/27 03:14:30;;;;;;;1.80;1.70;;;;;;;;;;5066398;28;20669;-77
2022/06/27 03:16:57;;;;;;;2.10;1.90;;;;;;;;;;5092014;28;20255;-76
2022/06/27 03:19:24;;;;;;;2.17;1.63;;;;;;;;;;5092769;28;20287;-76
2022/06/27 03:21:51;;;;;;;1.60;1.58;;;;;;;;;;5091397;28;20464;-75
2022/06/27 03:24:20;;;;;;;2.53;2.33;;;;;;;;;;5089661;28;20680;-77
2022/06/27 03:26:47;;;;;;;2.28;2.08;;;;;;;;;;5081884;28;20202;-76
2022/06/27 03:29:14;;;;;;;2.00;1.90;;;;;;;;;;5090799;28;20220;-78
2022/06/27 03:31:42;;;;;;;2.17;2.00;;;;;;;;;;5067434;28;20331;-77
2022/06/27 03:34:09;;;;;;;2.08;1.98;;;;;;;;;;5073854;28;20201;-77
2022/06/27 03:36:44;;;;;;;1.80;1.70;;;;;;;;;;5074010;28;20205;-72
2022/06/27 03:39:11;;;;;;;1.95;1.85;;;;;;;;;;5089858;28;20209;-76
2022/06/27 03:41:39;;;;;;;2.88;1.90;;;;;;;;;;5085435;28;20228;-75
2022/06/27 03:44:11;;;;;;;1.98;1.83;;;;;;;;;;5089205;28;20292;-76
2022/06/27 03:46:38;;;;;;;2.13;2.00;;;;;;;;;;5086094;28;20284;-78
2022/06/27 03:51:53;;;;;;;2.45;2.28;;;;;;;;;;5084775;28;20247;-76
2022/06/27 03:54:20;;;;;;;4.05;2.47;;;;;;;;;;5079030;28;20201;-76
2022/06/27 03:56:47;;;;;;;2.60;2.40;;;;;;;;;;5092321;28;20241;-75
2022/06/27 03:59:14;;;;;;;2.55;2.35;;;;;;;;;;5088130;28;20227;-76
2022/06/27 04:01:42;;;;;;;2.38;2.20;;;;;;;;;;5072486;28;20296;-77
2022/06/27 04:04:09;;;;;;;2.40;2.20;;;;;;;;;;5079545;28;20229;-78
2022/06/27 04:06:36;;;;;;;2.60;2.15;;;;;;;;;;5089218;28;20244;-77
2022/06/27 04:09:10;;;;;;;2.45;2.30;;;;;;;;;;5086784;28;20550;-75
2022/06/27 04:11:37;;;;;;;2.83;2.63;;;;;;;;;;5109610;27;20258;-77
2022/06/27 04:14:04;;;;;;;4.80;2.58;;;;;;;;;;5087489;28;20239;-75
2022/06/27 04:16:32;;;;;;;3.67;2.22;;;;;;;;;;5087092;28;20288;-75
2022/06/27 04:18:59;;;;;;;3.75;2.50;;;;;;;;;;5082316;28;20209;-76
2022/06/27 04:21:26;;;;;;;2.95;2.55;;;;;;;;;;5084061;28;20322;-75
2022/06/27 04:23:53;;;;;;;3.58;2.38;;;;;;;;;;5079045;28;20284;-77
2022/06/27 04:26:21;;;;;;;2.45;2.35;;;;;;;;;;5074490;28;20292;-76
2022/06/27 04:28:48;;;;;;;2.78;2.28;;;;;;;;;;5067485;28;20234;-75
2022/06/27 04:31:15;;;;;;;2.78;2.20;;;;;;;;;;5074569;28;20311;-75
2022/06/27 04:33:44;;;;;;;2.42;2.25;;;;;;;;;;5077987;28;20650;-75
2022/06/27 04:36:12;;;;;;;2.95;2.75;;;;;;;;;;5086693;28;20253;-75
2022/06/27 04:38:39;;;;;;;3.25;2.90;;;;;;;;;;5089749;28;20231;-74
2022/06/27 04:41:06;;;;;;;3.17;2.97;;;;;;;;;;5083758;28;20645;-76
2022/06/27 04:43:34;;;;;;;3.67;3.38;;;;;;;;;;5078929;28;20205;-76
2022/06/27 04:46:03;;;;;;;5.50;3.50;;;;;;;;;;5086852;28;20719;-77
2022/06/27 04:48:32;;;;;;;3.60;3.30;;;;;;;;;;5092477;28;20319;-74
2022/06/27 04:50:59;;;;;;;3.60;3.30;;;;;;;;;;5087317;28;20707;-75
2022/06/27 04:53:27;;;;;;;4.05;3.45;;;;;;;;;;5062815;28;20748;-76
2022/06/27 04:55:55;;;;;;;4.38;3.97;;;;;;;;;;5071395;28;20269;-75
2022/06/27 04:58:22;;;;;;;4.15;3.85;;;;;;;;;;5080259;28;20292;-75
2022/06/27 05:00:50;;;;;;;3.70;3.50;;;;;;;;;;5079080;28;20347;-76
2022/06/27 05:03:19;;;;;;;4.32;3.70;;;;;;;;;;5075659;28;20318;-76
2022/06/27 05:05:46;;;;;;;4.43;4.03;;;;;;;;;;5075865;28;20206;-75
2022/06/27 05:08:13;;;;;;;3.85;3.53;;;;;;;;;;5077793;28;20232;-76
2022/06/27 05:10:40;;;;;;;3.22;3.03;;;;;;;;;;5082588;28;20236;-76
2022/06/27 05:13:08;;;;;;;3.00;2.80;;;;;;;;;;5076613;28;20276;-76
2022/06/27 05:15:37;;;;;;;2.90;2.70;;;;;;;;;;5090747;28;21118;-77
2022/06/27 05:18:05;;;;;;;2.97;2.60;;;;;;;;;;5080376;28;20287;-74
2022/06/27 05:20:32;;;;;;;3.65;2.53;;;;;;;;;;5075864;28;20205;-75
2022/06/27 05:23:03;;;;;;;2.70;2.42;;;;;;;;;;5085082;28;20625;-76
2022/06/27 05:25:30;;;;;;;2.00;1.90;;;;;;;;;;5073182;28;20663;-74
2022/06/27 05:27:58;;;;;;;1.70;1.60;;;;;;;;;;5075003;28;20287;-75
2022/06/27 05:30:25;;;;;;;2.30;1.45;;;;;;;;;;5084399;28;20223;-76
2022/06/27 05:32:52;;;;;;;1.40;1.40;;;;;;;;;;5078503;28;20307;-76
2022/06/27 05:35:21;;;;;;;2.60;1.35;;;;;;;;;;5081635;28;20208;-76
2022/06/27 05:37:50;;;;;;;1.50;1.20;;;;;;;;;;5084697;28;20688;-75
2022/06/27 05:40:17;;;;;;;1.25;1.05;;;;;;;;;;5080458;28;20189;-75
2022/06/27 05:42:45;;;;;;;1.10;1.00;;;;;;;;;;5084500;28;20613;-75
2022/06/27 05:45:12;;;;;;;0.98;0.90;;;;;;;;;;5085931;28;20301;-74
2022/06/27 05:47:40;;;;;;;4.32;1.00;;;;;;;;;;5069566;28;20300;-77
2022/06/27 05:50:13;;;;;;;1.48;1.30;;;;;;;;;;5079511;28;20211;-76
2022/06/27 05:52:41;;;;;;;1.25;1.08;;;;;;;;;;5089890;28;20247;-75
2022/06/27 05:55:08;;;;;;;5.43;1.40;;;;;;;;;;5088724;28;20197;-75
2022/06/27 05:57:36;;;;;;;2.10;1.10;;;;;;;;;;5086267;28;20508;-76
2022/06/27 06:00:05;;;;;;;0.82;0.82;;;;;;;;;;5082974;28;20201;-76
2022/06/27 06:02:32;;;;;;;1.15;1.15;;;;;;;;;;5087529;28;20216;-76
2022/06/27 06:05:00;;;;;;;2.78;1.20;;;;;;;;;;5083408;28;20580;-75
2022/06/27 06:07:27;;;;;;;1.05;1.05;;;;;;;;;;5074162;28;20223;-74
2022/06/27 06:09:55;;;;;;;1.27;1.10;;;;;;;;;;5085654;28;20236;-75
2022/06/27 06:12:24;;;;;;;2.05;0.93;;;;;;;;;;5082699;28;20260;-76
2022/06/27 06:14:52;;;;;;;1.45;0.90;;;;;;;;;;5088075;28;20285;-77
2022/06/27 06:17:19;;;;;;;2.33;1.10;;;;;;;;;;5093211;28;20250;-77
2022/06/27 06:19:46;;;;;;;0.90;0.90;;;;;;;;;;5081187;28;20292;-75
2022/06/27 06:22:14;;;;;;;0.90;0.90;;;;;;;;;;5083853;28;20257;-76
2022/06/27 06:24:41;;;;;;;1.10;1.10;;;;;;;;;;5078184;28;20285;-73
2022/06/27 06:27:09;;;;;;;1.10;1.00;;;;;;;;;;5092095;28;20201;-76
2022/06/27 06:29:36;;;;;;;1.05;0.90;;;;;;;;;;5089555;28;20233;-75
2022/06/27 06:32:04;;;;;;;1.15;0.90;;;;;;;;;;5076362;28;20225;-76
2022/06/27 06:34:33;;;;;;;0.98;0.98;;;;;;;;;;5067752;28;20235;-76
2022/06/27 06:37:01;;;;;;;1.20;1.10;;;;;;;;;;5090042;28;20204;-76
2022/06/27 06:39:29;;;;;;;0.93;0.93;;;;;;;;;;5068031;28;20595;-76
2022/06/27 06:41:57;;;;;;;1.27;1.17;;;;;;;;;;5094631;28;20235;-76
2022/06/27 06:44:25;;;;;;;1.25;1.10;;;;;;;;;;5089848;28;20218;-77
2022/06/27 06:46:54;;;;;;;2.47;1.10;;;;;;;;;;5075845;28;20229;-76
2022/06/27 06:49:21;;;;;;;2.15;1.10;;;;;;;;;;5090416;28;20208;-74
2022/06/27 06:51:49;;;;;;;2.10;0.93;;;;;;;;;;5075228;28;20282;-75
2022/06/27 06:54:20;;;;;;;2.05;1.27;;;;;;;;;;5097192;28;20316;-75
2022/06/27 06:56:52;;;;;;;1.20;1.10;;;;;;;;;;5097792;28;20218;-74
2022/06/27 06:59:19;;;;;;;1.00;1.00;;;;;;;;;;5070003;28;20210;-76
2022/06/27 07:01:47;;;;;;;1.33;1.23;;;;;;;;;;5092221;28;20256;-74
2022/06/27 07:04:15;;;;;;;1.10;1.10;;;;;;;;;;5078442;28;20247;-73
2022/06/27 07:06:43;;;;;;;1.00;1.00;;;;;;;;;;5071611;28;20233;-74
2022/06/27 07:09:10;;;;;;;0.98;0.98;;;;;;;;;;5085824;28;20248;-75
2022/06/27 07:11:39;;;;;;;2.00;0.95;;;;;;;;;;5078901;28;20255;-76
2022/06/27 07:14:07;;;;;;;1.17;1.00;;;;;;;;;;5079351;28;20319;-76
2022/06/27 07:16:35;;;;;;;1.25;1.15;;;;;;;;;;5099077;27;20700;-76
2022/06/27 07:19:06;;;;;;;2.25;1.20;;;;;;;;;;5091819;28;20215;-76
2022/06/27 07:21:35;;;;;;;2.35;2.17;;;;;;;;;;5088885;28;20311;-78
2022/06/27 07:24:05;;;;;;;2.72;1.30;;;;;;;;;;5098710;28;20226;-77
2022/06/27 07:26:33;;;;;;;1.40;1.30;;;;;;;;;;5094193;28;20231;-77
2022/06/27 07:29:05;;;;;;;2.17;1.35;;;;;;;;;;5093303;28;20231;-75
2022/06/27 07:31:33;;;;;;;1.98;1.50;;;;;;;;;;5079648;28;20224;-75
2022/06/27 07:34:02;;;;;;;1.20;1.10;;;;;;;;;;5084875;28;20213;-75
2022/06/27 07:36:29;;;;;;;1.30;1.20;;;;;;;;;;5089972;28;20224;-77
2022/06/27 07:38:58;;;;;;;1.42;1.42;;;;;;;;;;5090631;28;20238;-77
2022/06/27 07:41:26;;;;;;;1.35;1.25;;;;;;;;;;5085573;28;20413;-75
2022/06/27 07:43:54;;;;;;;1.30;1.30;;;;;;;;;;5072260;28;20265;-77
2022/06/27 07:46:22;;;;;;;1.60;1.02;;;;;;;;;;5079463;28;20214;-75
2022/06/27 07:48:50;;;;;;;2.95;2.50;;;;;;;;;;5066740;28;20208;-77
2022/06/27 07:51:19;;;;;;;1.73;1.63;;;;;;;;;;5078846;28;22321;-76
2022/06/27 07:53:48;;;;;;;2.42;1.00;;;;;;;;;;5080853;28;20362;-75
2022/06/27 07:56:16;;;;;;;4.22;3.25;;;;;;;;;;5078918;28;20199;-76
2022/06/27 07:58:55;;;;;;;2.47;1.95;;;;;;;;;;5079966;28;20224;-75
2022/06/27 08:01:23;;;;;;;5.20;2.78;;;;;;;;;;5078722;28;20260;-76
2022/06/27 08:03:51;;;;;;;4.22;2.63;;;;;;;;;;5073301;28;20232;-76
2022/06/27 08:06:23;;;;;;;1.50;1.40;;;;;;;;;;5087087;28;20746;-75
2022/06/27 08:08:52;;;;;;;1.90;1.80;;;;;;;;;;5082361;28;20254;-77
2022/06/27 08:11:21;;;;;;;4.07;3.67;;;;;;;;;;5085709;28;20276;-77
2022/06/27 08:13:49;;;;;;;2.63;1.35;;;;;;;;;;5085529;28;20678;-75
2022/06/27 08:16:18;;;;;;;1.38;1.27;;;;;;;;;;5084233;28;20524;-76
2022/06/27 08:18:47;;;;;;;1.30;1.30;;;;;;;;;;5086989;28;22122;-77
2022/06/27 08:21:16;;;;;;;1.25;1.15;;;;;;;;;;5080619;28;20239;-77
2022/06/27 08:23:44;;;;;;;1.65;1.55;;;;;;;;;;5086114;28;20255;-76
2022/06/27 08:26:12;;;;;;;2.90;1.42;;;;;;;;;;5077292;28;20254;-77
2022/06/27 08:28:40;;;;;;;1.58;1.48;;;;;;;;;;5087044;28;20211;-76
2022/06/27 08:31:10;;;;;;;2.97;2.22;;;;;;;;;;5055817;28;20283;-76
2022/06/27 08:33:39;;;;;;;1.80;1.70;;;;;;;;;;5081997;28;20271;-77
2022/06/27 08:36:07;;;;;;;2.28;2.17;;;;;;;;;;5082018;28;20339;-76
2022/06/27 08:38:45;;;;;;;2.38;1.50;;;;;;;;;;5080078;28;20299;-76
2022/06/27 08:41:13;;;;;;;1.70;1.60;;;;;;;;;;5092012;28;20304;-76
2022/06/27 08:43:43;;;;;;;1.98;1.58;;;;;;;;;;5088573;28;20243;-76
2022/06/27 08:46:13;;;;;;;1.50;1.40;;;;;;;;;;5062576;28;20655;-76
2022/06/27 08:48:41;;;;;;;1.65;1.48;;;;;;;;;;5067978;28;20204;-77
2022/06/27 08:51:09;;;;;;;2.35;1.80;;;;;;;;;;5073815;28;20232;-75
2022/06/27 08:53:38;;;;;;;2.55;1.38;;;;;;;;;;5077358;28;20224;-76
2022/06/27 08:56:08;;;;;;;2.15;1.63;;;;;;;;;;5098318;28;20223;-77
2022/06/27 08:58:36;;;;;;;1.60;1.50;;;;;;;;;;5085977;28;20228;-77
2022/06/27 09:01:04;;;;;;;1.50;1.40;;;;;;;;;;5092258;28;20255;-76
2022/06/27 09:03:32;;;;;;;1.40;1.30;;;;;;;;;;5075580;28;20212;-77
2022/06/27 09:06:06;;;;;;;1.38;1.27;;;;;;;;;;5086539;28;20240;-76
2022/06/27 09:08:36;;;;;;;1.70;1.40;;;;;;;;;;5080226;28;20278;-76
2022/06/27 09:11:04;;;;;;;1.83;1.38;;;;;;;;;;5080867;28;20266;-77
2022/06/27 09:13:32;;;;;;;1.00;1.00;;;;;;;;;;5085962;28;20779;-78
2022/06/27 09:16:01;;;;;;;2.13;1.80;;;;;;;;;;5091059;28;20597;-77
2022/06/27 09:18:31;;;;;;;1.35;1.15;;;;;;;;;;5084252;28;20207;-75
2022/06/27 09:21:04;;;;;;;1.17;1.13;;;;;;;;;;5087739;28;20315;-76
2022/06/27 09:24:03;;;;;;;3.25;1.20;;;;;;;;;;5096620;28;20253;-78
2022/06/27 09:26:32;;;;;;;2.75;1.15;;;;;;;;;;5050738;28;20717;-75
2022/06/27 09:29:00;;;;;;;1.73;1.33;;;;;;;;;;5067298;28;20748;-77
2022/06/27 09:31:30;;;;;;;1.58;0.95;;;;;;;;;;5077457;28;20278;-77
2022/06/27 09:34:01;;;;;;;1.13;1.02;;;;;;;;;;5066058;28;20261;-78
2022/06/27 09:36:29;;;;;;;1.40;1.30;;;;;;;;;;5088646;28;20819;-78
2022/06/27 09:38:57;;;;;;;3.05;1.80;;;;;;;;;;5087396;28;20288;-77
2022/06/27 09:41:26;;;;;;;1.45;1.00;;;;;;;;;;5079646;28;20311;-77
2022/06/27 09:43:54;;;;;;;0.80;0.80;;;;;;;;;;5081996;28;20955;-77
2022/06/27 09:46:25;;;;;;;5.28;2.95;;;;;;;;;;5094182;28;20247;-77
2022/06/27 09:48:52;;;;;;;1.77;1.67;;;;;;;;;;5076390;28;20242;-77
2022/06/27 09:51:21;;;;;;;1.10;1.00;;;;;;;;;;5082408;28;20224;-76
2022/06/27 09:53:50;;;;;;;2.28;1.20;;;;;;;;;;5082726;28;20224;-77
2022/06/27 09:56:19;;;;;;;1.38;0.93;;;;;;;;;;5081615;28;20226;-76
2022/06/27 09:58:46;;;;;;;1.15;1.05;;;;;;;;;;5089705;28;20235;-76
2022/06/27 10:01:35;;;;;;;2.13;1.90;;;;;;;;;;5088707;28;20216;-76
2022/06/27 10:04:03;;;;;;;1.52;1.42;;;;;;;;;;5082956;28;20561;-76
2022/06/27 10:06:31;;;;;;;1.10;1.00;;;;;;;;;;5082820;28;20250;-77
2022/06/27 10:09:00;;;;;;;1.42;1.33;;;;;;;;;;5088168;28;20203;-77
2022/06/27 10:11:27;;;;;;;1.40;1.00;;;;;;;;;;5091588;28;20652;-76
2022/06/27 10:14:14;;;;;;;1.50;1.20;;;;;;;;;;5077164;28;20257;-77
2022/06/27 10:16:51;;;;;;;3.00;2.35;;;;;;;;;;5077547;28;20539;-77
2022/06/27 10:19:19;;;;;;;1.00;1.00;;;;;;;;;;5095105;28;20285;-78
2022/06/27 10:21:47;;;;;;;1.65;1.00;;;;;;;;;;5094905;28;20315;-79
2022/06/27 10:24:34;;;;;;;4.47;1.55;;;;;;;;;;5085875;28;20305;-77
2022/06/27 10:27:03;;;;;;;0.88;0.88;;;;;;;;;;5097937;28;20286;-76
2022/06/27 10:29:32;;;;;;;1.60;0.90;;;;;;;;;;5086012;28;20209;-78
2022/06/27 10:32:01;;;;;;;1.10;1.00;;;;;;;;;;5097708;28;20224;-75
2022/06/27 10:34:43;;;;;;;1.20;1.02;;;;;;;;;;5078371;28;20260;-78
2022/06/27 10:37:34;;;;;;;1.05;0.95;;;;;;;;;;5059721;28;20209;-77
2022/06/27 10:40:19;;;;;;;1.88;1.00;;;;;;;;;;5051469;28;20203;-78
2022/06/27 10:42:49;;;;;;;1.27;1.02;;;;;;;;;;5067441;28;20319;-76
2022/06/27 10:45:19;;;;;;;0.90;0.90;;;;;;;;;;5049732;28;20208;-78
2022/06/27 10:47:47;;;;;;;0.90;0.90;;;;;;;;;;5050164;28;20486;-77
2022/06/27 10:50:15;;;;;;;1.70;1.10;;;;;;;;;;5070235;28;20244;-76
2022/06/27 10:52:44;;;;;;;1.17;1.05;;;;;;;;;;5095965;27;20217;-75
2022/06/27 10:55:21;;;;;;;1.63;1.10;;;;;;;;;;5096097;28;20258;-76
2022/06/27 10:57:49;;;;;;;1.63;1.30;;;;;;;;;;5086489;28;20205;-77
2022/06/27 11:00:36;;;;;;;3.22;1.55;;;;;;;;;;5095289;28;20671;-76
2022/06/27 11:03:04;;;;;;;2.88;2.00;;;;;;;;;;5062935;28;20228;-76
2022/06/27 11:05:50;;;;;;;3.22;1.40;;;;;;;;;;5066362;28;20206;-75
2022/06/27 11:08:18;;;;;;;4.95;2.67;;;;;;;;;;5051862;28;20205;-77
2022/06/27 11:10:45;;;;;;;4.72;2.75;;;;;;;;;;5075471;28;20235;-75
2022/06/27 11:13:32;;;;;;;3.65;1.83;;;;;;;;;;5066258;28;20316;-76
2022/06/27 11:15:59;;;;;;;1.48;1.38;;;;;;;;;;5070094;28;20262;-77
2022/06/27 11:18:26;;;;;;;3.30;1.98;;;;;;;;;;5050745;28;20704;-76
2022/06/27 11:20:57;;;;;;;3.03;1.90;;;;;;;;;;5066221;28;20312;-77
2022/06/27 11:23:24;;;;;;;2.17;1.38;;;;;;;;;;5068339;28;20225;-76
2022/06/27 11:25:55;;;;;;;1.92;1.30;;;;;;;;;;5056129;28;21070;-76
2022/06/27 11:33:58;;;;;;;4.07;1.60;;;;;;;;;;5070962;28;20315;-77
2022/06/27 11:36:26;;;;;;;1.75;1.20;;;;;;;;;;5064246;28;20262;-78
2022/06/27 11:38:55;;;;;;;1.70;1.60;;;;;;;;;;5044792;28;20660;-75
2022/06/27 11:41:27;;;;;;;3.15;1.48;;;;;;;;;;5049739;28;20217;-77
2022/06/27 11:43:56;;;;;;;3.00;2.50;;;;;;;;;;5064313;28;20209;-78
2022/06/27 11:46:25;;;;;;;2.72;1.40;;;;;;;;;;5080629;27;20241;-76
2022/06/27 11:49:03;;;;;;;2.03;1.30;;;;;;;;;;5078403;27;20232;-76
2022/06/27 11:51:33;;;;;;;1.73;1.63;;;;;;;;;;5063855;28;20312;-76
2022/06/27 11:54:01;;;;;;;1.98;1.35;;;;;;;;;;5066850;28;21245;-79
2022/06/27 11:56:30;;;;;;;2.05;1.00;;;;;;;;;;5067772;28;20260;-78
2022/06/27 11:58:58;;;;;;;2.30;1.65;;;;;;;;;;5087644;28;20243;-77
2022/06/27 12:01:25;;;;;;;2.05;1.30;;;;;;;;;;5079060;28;20454;-76
2022/06/27 12:04:10;;;;;;;1.40;1.15;;;;;;;;;;5065405;28;20204;-77
2022/06/27 12:06:41;;;;;;;2.42;1.30;;;;;;;;;;5065120;28;20207;-76
2022/06/27 12:09:09;;;;;;;1.80;1.70;;;;;;;;;;5047420;28;20303;-76
2022/06/27 12:11:36;;;;;;;8.55;4.95;;;;;;;;;;5065308;28;20270;-76
2022/06/27 12:14:04;;;;;;;1.67;1.10;;;;;;;;;;5064393;28;20347;-77
2022/06/27 12:16:44;;;;;;;1.50;1.40;;;;;;;;;;5066335;28;20641;-77
2022/06/27 12:19:12;;;;;;;2.65;1.13;;;;;;;;;;5064312;28;20201;-77
2022/06/27 12:21:39;;;;;;;1.02;1.02;;;;;;;;;;5062695;28;20354;-76
2022/06/27 12:24:06;;;;;;;2.45;1.10;;;;;;;;;;5064644;28;20209;-77
2022/06/27 12:26:34;;;;;;;1.17;1.08;;;;;;;;;;5060848;28;20354;-75
2022/06/27 12:29:01;;;;;;;1.20;1.13;;;;;;;;;;5064373;28;20210;-75
2022/06/27 12:31:29;;;;;;;3.00;1.10;;;;;;;;;;5066196;28;20345;-76
2022/06/27 12:33:56;;;;;;;2.13;1.33;;;;;;;;;;5066360;28;20231;-77
2022/06/27 12:36:23;;;;;;;4.75;2.47;;;;;;;;;;5066952;28;20207;-78
2022/06/27 12:38:51;;;;;;;6.07;3.70;;;;;;;;;;5054852;28;20324;-75
2022/06/27 12:41:18;;;;;;;3.80;3.00;;;;;;;;;;5089391;28;20660;-77
2022/06/27 12:43:46;;;;;;;4.43;2.67;;;;;;;;;;5091127;28;20237;-76
2022/06/27 12:46:14;;;;;;;3.03;1.60;;;;;;;;;;5099565;28;20197;-77
2022/06/27 12:48:42;;;;;;;2.17;1.17;;;;;;;;;;5086240;27;20258;-75
2022/06/27 12:51:10;;;;;;;6.22;4.15;;;;;;;;;;5064284;28;20228;-79
2022/06/27 12:53:37;;;;;;;5.40;3.50;;;;;;;;;;5069495;28;20194;-76
2022/06/27 12:56:05;;;;;;;3.63;2.50;;;;;;;;;;5065772;28;20783;-77
2022/06/27 12:58:33;;;;;;;3.05;1.98;;;;;;;;;;5067166;28;20645;-76
2022/06/27 13:01:01;;;;;;;1.30;1.20;;;;;;;;;;5066067;28;20315;-77
2022/06/27 13:03:28;;;;;;;1.15;1.10;;;;;;;;;;5063645;28;20202;-75
2022/06/27 13:05:56;;;;;;;3.95;1.50;;;;;;;;;;5071619;28;20212;-75
2022/06/27 13:08:24;;;;;;;2.15;1.60;;;;;;;;;;5064954;28;20209;-78
2022/06/27 13:10:51;;;;;;;2.47;1.38;;;;;;;;;;5063900;28;20355;-77
2022/06/27 13:13:19;;;;;;;1.95;1.50;;;;;;;;;;5061580;28;20283;-75
2022/06/27 13:15:46;;;;;;;2.72;1.30;;;;;;;;;;5066436;28;20315;-75
2022/06/27 13:18:13;;;;;;;3.25;1.23;;;;;;;;;;5069994;28;20292;-74
2022/06/27 13:20:40;;;;;;;1.40;1.30;;;;;;;;;;5066253;28;20200;-76
2022/06/27 13:23:14;;;;;;;2.35;1.30;;;;;;;;;;5067448;28;20201;-76
2022/06/27 13:25:41;;;;;;;2.45;1.80;;;;;;;;;;5069444;28;20295;-76
2022/06/27 13:28:08;;;;;;;3.15;2.10;;;;;;;;;;5068584;28;20221;-77
2022/06/27 13:30:37;;;;;;;3.00;2.28;;;;;;;;;;5049389;28;20292;-76
2022/06/27 13:33:05;;;;;;;4.30;1.63;;;;;;;;;;5065711;28;20292;-77
2022/06/27 13:35:32;;;;;;;2.72;1.73;;;;;;;;;;5064238;28;20232;-76
2022/06/27 13:38:00;;;;;;;2.30;1.50;;;;;;;;;;5060574;28;20215;-76
2022/06/27 13:40:27;;;;;;;1.50;1.40;;;;;;;;;;5068916;28;28068;-78
2022/06/27 13:42:54;;;;;;;2.20;1.60;;;;;;;;;;5080297;28;20224;-78
2022/06/27 13:45:23;;;;;;;1.73;1.63;;;;;;;;;;5062999;28;20229;-77
2022/06/27 13:47:50;;;;;;;1.67;1.58;;;;;;;;;;5063115;28;20234;-77
2022/06/27 13:50:17;;;;;;;1.55;1.45;;;;;;;;;;5047074;28;20274;-76
2022/06/27 13:52:45;;;;;;;2.25;2.05;;;;;;;;;;5058749;28;20239;-77
2022/06/27 13:55:12;;;;;;;3.75;1.40;;;;;;;;;;5063708;28;20225;-78
2022/06/27 13:57:39;;;;;;;1.60;1.50;;;;;;;;;;5067534;28;20829;-75
2022/06/27 14:00:27;;;;;;;3.50;1.80;;;;;;;;;;5066831;28;20203;-75
2022/06/27 14:02:54;;;;;;;1.70;1.50;;;;;;;;;;5079411;27;20205;-79
2022/06/27 14:05:21;;;;;;;1.50;1.40;;;;;;;;;;5061290;28;20806;-76
2022/06/27 14:07:49;;;;;;;2.20;1.63;;;;;;;;;;5084667;28;20231;-76
2022/06/27 14:10:18;;;;;;;1.98;1.88;;;;;;;;;;5088983;28;20243;-76
2022/06/27 14:12:47;;;;;;;3.28;2.97;;;;;;;;;;5096263;28;20224;-76
2022/06/27 14:15:21;;;;;;;3.25;2.13;;;;;;;;;;5078294;28;20230;-75
2022/06/27 14:17:49;;;;;;;2.33;1.65;;;;;;;;;;5094835;28;20676;-76
2022/06/27 14:20:17;;;;;;;1.67;1.58;;;;;;;;;;5077557;28;20228;-75
2022/06/27 14:22:44;;;;;;;1.90;1.80;;;;;;;;;;5090219;28;20275;-77
2022/06/27 14:25:14;;;;;;;1.80;1.70;;;;;;;;;;5103023;28;20209;-77
2022/06/27 14:27:41;;;;;;;1.98;1.80;;;;;;;;;;5086728;28;20205;-77
2022/06/27 14:30:08;;;;;;;3.13;1.90;;;;;;;;;;5096466;28;20212;-76
2022/06/27 14:32:36;;;;;;;5.07;1.80;;;;;;;;;;5084614;28;20277;-77
2022/06/27 14:35:23;;;;;;;1.90;1.80;;;;;;;;;;5094757;28;20231;-76
2022/06/27 14:37:50;;;;;;;5.20;3.05;;;;;;;;;;5094835;28;20232;-77
2022/06/27 14:40:17;;;;;;;4.63;3.20;;;;;;;;;;5091926;28;20657;-76
2022/06/27 14:42:45;;;;;;;3.00;2.00;;;;;;;;;;5084018;28;20225;-76
2022/06/27 14:45:12;;;;;;;2.05;1.95;;;;;;;;;;5082231;28;20221;-75
2022/06/27 14:47:39;;;;;;;2.10;2.00;;;;;;;;;;5074455;28;20231;-78
2022/06/27 14:50:07;;;;;;;4.68;2.50;;;;;;;;;;5088761;28;20258;-76
2022/06/27 14:52:34;;;;;;;2.70;2.47;;;;;;;;;;5094740;28;20708;-74
2022/06/27 14:55:02;;;;;;;2.85;2.65;;;;;;;;;;5094384;28;20209;-75
2022/06/27 14:57:30;;;;;;;2.90;2.63;;;;;;;;;;5080630;28;20270;-76
2022/06/27 14:59:57;;;;;;;3.35;2.72;;;;;;;;;;5089858;28;20230;-77
2022/06/27 15:02:24;;;;;;;4.40;3.30;;;;;;;;;;5098707;28;20228;-75